LFMP

Perpignan - Rivesaltes Airport

Airport
ICAO code
LFMP
IATA Code
PGF
Summary
ICAO Region
EUR
ICAO Territory
Location

Perpignan, Languedoc-Roussillon

Serving
Perpignan
Elevation
144 ft
Coordinates
42° 44' 41" N , 2° 52' 11" E
KCC
Csa
Metar
Observation
LFMP 112300Z AUTO VRB01KT CAVOK 25/23 Q1013
Station
Perpignan
Date/Time
2022-08-11 23:00:00
Wind speed
01 kts
Lowest cloud amount
clouds and visibility OK
Temperature
25°C
Dew point
23°C
Humidity
88%
QNH
1013 hPa
Weather condition
n/a

Description

International airport serving Perginan.

Climatology

Dry-summer subtropical ”Mediterranean" climate (Köppen climate classification Csa) - characterized by hot, dry summers and mild winters. During the summer, subtropical high pressure cells dominate, making rainfall unlikely except for the occasional thunderstorm. In the winter, periodic storms bring rain (snow at higher elevations).

Runways

Designator Length Width Surface Rops
13/31 1265 20 ASP Yes/Yes
15/33 2500 45 ASP Yes/Yes

Airport map

Aerial View

SKYbrary Partners:

Safety knowledge contributed by: